Terminal Aerodrome Forecast
Issued by NWS

Home | Current Version | Previous Version | Graphics & Text | Print | Product List | Glossary On
Versions: 1 2 3 4 5 6 7 8 9 10 11 12 13 14 15 16 17 18 19
016
FTUS43 KIWX 211721
TAFSBN
TAF
KSBN 211721Z 2118/2218 16005KT 1SM -DZ BR OVC003
      TEMPO 2118/2122 1/2SM -DZ FG OVC003
     FM220600 15005KT 3/4SM -RA BR OVC003
     FM221500 15010G20KT 1SM RA BR OVC003=

USA.gov is the U.S. government's official web portal to all federal, state and local government web resources and services.